sensor_id;sensor_type;location;lat;lon;timestamp;P1;durP1;ratioP1;P2;durP2;ratioP2
1682;SDS011;13252;53.596;10.060;2023-07-09T00:00:11;6.87;;;3.13;;
1682;SDS011;13252;53.596;10.060;2023-07-09T00:02:40;7.33;;;3.50;;
1682;SDS011;13252;53.596;10.060;2023-07-09T00:05:09;5.60;;;3.00;;
1682;SDS011;13252;53.596;10.060;2023-07-09T00:07:39;5.17;;;2.90;;
1682;SDS011;13252;53.596;10.060;2023-07-09T00:10:12;5.80;;;3.30;;
1682;SDS011;13252;53.596;10.060;2023-07-09T00:12:43;9.73;;;2.93;;
1682;SDS011;13252;53.596;10.060;2023-07-09T00:15:11;8.37;;;3.20;;
1682;SDS011;13252;53.596;10.060;2023-07-09T00:17:40;4.80;;;2.70;;
1682;SDS011;13252;53.596;10.060;2023-07-09T00:20:10;6.30;;;3.20;;
1682;SDS011;13252;53.596;10.060;2023-07-09T00:22:40;5.20;;;3.30;;
1682;SDS011;13252;53.596;10.060;2023-07-09T00:25:09;7.27;;;2.70;;
1682;SDS011;13252;53.596;10.060;2023-07-09T00:27:40;4.40;;;2.80;;
1682;SDS011;13252;53.596;10.060;2023-07-09T00:30:14;7.27;;;2.90;;
1682;SDS011;13252;53.596;10.060;2023-07-09T00:32:43;6.67;;;3.13;;
1682;SDS011;13252;53.596;10.060;2023-07-09T00:35:11;7.10;;;3.40;;
1682;SDS011;13252;53.596;10.060;2023-07-09T00:37:42;13.27;;;3.67;;
1682;SDS011;13252;53.596;10.060;2023-07-09T00:40:12;8.30;;;2.83;;
1682;SDS011;13252;53.596;10.060;2023-07-09T00:42:45;11.20;;;2.93;;
1682;SDS011;13252;53.596;10.060;2023-07-09T00:45:19;8.00;;;2.50;;
1682;SDS011;13252;53.596;10.060;2023-07-09T00:47:49;6.77;;;3.17;;
1682;SDS011;13252;53.596;10.060;2023-07-09T00:50:32;10.33;;;3.47;;
1682;SDS011;13252;53.596;10.060;2023-07-09T00:53:02;11.23;;;3.37;;
1682;SDS011;13252;53.596;10.060;2023-07-09T00:55:35;7.67;;;2.70;;
1682;SDS011;13252;53.596;10.060;2023-07-09T00:58:07;4.90;;;2.83;;
1682;SDS011;13252;53.596;10.060;2023-07-09T01:00:39;8.07;;;3.03;;
1682;SDS011;13252;53.596;10.060;2023-07-09T01:03:14;5.80;;;2.70;;
1682;SDS011;13252;53.596;10.060;2023-07-09T01:05:46;7.47;;;3.50;;
1682;SDS011;13252;53.596;10.060;2023-07-09T01:08:18;7.30;;;3.20;;
1682;SDS011;13252;53.596;10.060;2023-07-09T01:10:47;5.07;;;3.20;;
1682;SDS011;13252;53.596;10.060;2023-07-09T01:13:16;5.50;;;2.83;;
1682;SDS011;13252;53.596;10.060;2023-07-09T01:15:47;4.83;;;2.60;;
1682;SDS011;13252;53.596;10.060;2023-07-09T01:18:15;4.37;;;2.50;;
1682;SDS011;13252;53.596;10.060;2023-07-09T01:20:43;8.97;;;3.20;;
1682;SDS011;13252;53.596;10.060;2023-07-09T01:23:13;6.53;;;3.20;;
1682;SDS011;13252;53.596;10.060;2023-07-09T01:25:46;8.77;;;2.83;;
1682;SDS011;13252;53.596;10.060;2023-07-09T01:28:20;5.23;;;2.77;;
1682;SDS011;13252;53.596;10.060;2023-07-09T01:30:49;10.70;;;3.20;;
1682;SDS011;13252;53.596;10.060;2023-07-09T01:33:21;6.13;;;2.80;;
1682;SDS011;13252;53.596;10.060;2023-07-09T01:35:49;7.60;;;3.10;;
1682;SDS011;13252;53.596;10.060;2023-07-09T01:38:21;6.90;;;2.83;;
1682;SDS011;13252;53.596;10.060;2023-07-09T01:40:49;5.70;;;2.70;;
1682;SDS011;13252;53.596;10.060;2023-07-09T01:43:17;6.70;;;3.20;;
1682;SDS011;13252;53.596;10.060;2023-07-09T01:45:45;5.10;;;3.03;;
1682;SDS011;13252;53.596;10.060;2023-07-09T01:48:16;4.90;;;3.97;;
1682;SDS011;13252;53.596;10.060;2023-07-09T01:50:46;4.70;;;3.30;;
1682;SDS011;13252;53.596;10.060;2023-07-09T01:53:16;6.80;;;2.93;;
1682;SDS011;13252;53.596;10.060;2023-07-09T01:55:47;8.50;;;3.03;;
1682;SDS011;13252;53.596;10.060;2023-07-09T01:58:15;8.43;;;2.93;;
1682;SDS011;13252;53.596;10.060;2023-07-09T02:00:44;5.80;;;3.37;;
1682;SDS011;13252;53.596;10.060;2023-07-09T02:03:12;8.00;;;3.07;;
1682;SDS011;13252;53.596;10.060;2023-07-09T02:05:41;4.97;;;3.47;;
1682;SDS011;13252;53.596;10.060;2023-07-09T02:08:09;4.23;;;2.73;;
1682;SDS011;13252;53.596;10.060;2023-07-09T02:10:36;6.20;;;2.47;;
1682;SDS011;13252;53.596;10.060;2023-07-09T02:13:05;5.07;;;2.70;;
1682;SDS011;13252;53.596;10.060;2023-07-09T02:15:33;6.23;;;2.80;;
1682;SDS011;13252;53.596;10.060;2023-07-09T02:18:02;7.43;;;2.80;;
1682;SDS011;13252;53.596;10.060;2023-07-09T02:20:30;4.73;;;2.70;;
1682;SDS011;13252;53.596;10.060;2023-07-09T02:22:58;4.60;;;2.90;;
1682;SDS011;13252;53.596;10.060;2023-07-09T02:25:25;5.77;;;3.17;;
1682;SDS011;13252;53.596;10.060;2023-07-09T02:27:53;5.93;;;3.17;;
1682;SDS011;13252;53.596;10.060;2023-07-09T02:30:22;5.10;;;3.00;;
1682;SDS011;13252;53.596;10.060;2023-07-09T02:32:49;5.47;;;2.97;;
1682;SDS011;13252;53.596;10.060;2023-07-09T02:35:20;4.83;;;2.93;;
1682;SDS011;13252;53.596;10.060;2023-07-09T02:37:48;4.50;;;3.10;;
1682;SDS011;13252;53.596;10.060;2023-07-09T02:40:16;4.33;;;2.70;;
1682;SDS011;13252;53.596;10.060;2023-07-09T02:42:44;5.67;;;3.37;;
1682;SDS011;13252;53.596;10.060;2023-07-09T02:45:15;5.93;;;3.30;;
1682;SDS011;13252;53.596;10.060;2023-07-09T02:47:44;4.57;;;3.30;;
1682;SDS011;13252;53.596;10.060;2023-07-09T02:50:13;5.67;;;3.07;;
1682;SDS011;13252;53.596;10.060;2023-07-09T02:52:41;6.33;;;3.00;;
1682;SDS011;13252;53.596;10.060;2023-07-09T02:55:09;4.30;;;2.90;;
1682;SDS011;13252;53.596;10.060;2023-07-09T02:57:36;5.27;;;3.20;;
1682;SDS011;13252;53.596;10.060;2023-07-09T03:00:04;5.00;;;3.00;;
1682;SDS011;13252;53.596;10.060;2023-07-09T03:02:34;5.43;;;2.73;;
1682;SDS011;13252;53.596;10.060;2023-07-09T03:05:03;7.13;;;3.70;;
1682;SDS011;13252;53.596;10.060;2023-07-09T03:07:31;7.40;;;3.00;;
1682;SDS011;13252;53.596;10.060;2023-07-09T03:09:59;5.50;;;2.90;;
1682;SDS011;13252;53.596;10.060;2023-07-09T03:12:29;7.63;;;3.20;;
1682;SDS011;13252;53.596;10.060;2023-07-09T03:14:57;6.47;;;3.13;;
1682;SDS011;13252;53.596;10.060;2023-07-09T03:17:25;4.47;;;3.00;;
1682;SDS011;13252;53.596;10.060;2023-07-09T03:19:53;5.03;;;3.30;;
1682;SDS011;13252;53.596;10.060;2023-07-09T03:22:22;3.93;;;3.13;;
1682;SDS011;13252;53.596;10.060;2023-07-09T03:24:49;5.03;;;3.47;;
1682;SDS011;13252;53.596;10.060;2023-07-09T03:27:17;6.43;;;3.40;;
1682;SDS011;13252;53.596;10.060;2023-07-09T03:29:45;4.90;;;3.17;;
1682;SDS011;13252;53.596;10.060;2023-07-09T03:32:12;4.50;;;3.27;;
1682;SDS011;13252;53.596;10.060;2023-07-09T03:34:40;6.10;;;3.40;;
1682;SDS011;13252;53.596;10.060;2023-07-09T03:37:08;4.93;;;3.20;;
1682;SDS011;13252;53.596;10.060;2023-07-09T03:39:37;5.07;;;3.03;;
1682;SDS011;13252;53.596;10.060;2023-07-09T03:42:05;6.70;;;3.53;;
1682;SDS011;13252;53.596;10.060;2023-07-09T03:44:32;4.57;;;2.87;;
1682;SDS011;13252;53.596;10.060;2023-07-09T03:47:00;5.30;;;3.60;;
1682;SDS011;13252;53.596;10.060;2023-07-09T03:49:28;7.10;;;3.23;;
1682;SDS011;13252;53.596;10.060;2023-07-09T03:51:56;6.20;;;3.20;;
1682;SDS011;13252;53.596;10.060;2023-07-09T03:54:23;4.67;;;3.13;;
1682;SDS011;13252;53.596;10.060;2023-07-09T03:56:54;6.00;;;3.20;;
1682;SDS011;13252;53.596;10.060;2023-07-09T03:59:22;5.33;;;3.17;;
1682;SDS011;13252;53.596;10.060;2023-07-09T04:01:49;8.30;;;3.33;;
1682;SDS011;13252;53.596;10.060;2023-07-09T04:04:17;4.20;;;2.87;;
1682;SDS011;13252;53.596;10.060;2023-07-09T04:06:46;6.17;;;3.30;;
1682;SDS011;13252;53.596;10.060;2023-07-09T04:09:14;4.50;;;3.43;;
1682;SDS011;13252;53.596;10.060;2023-07-09T04:11:42;6.17;;;3.77;;
1682;SDS011;13252;53.596;10.060;2023-07-09T04:14:10;5.33;;;3.70;;
1682;SDS011;13252;53.596;10.060;2023-07-09T04:16:38;5.13;;;3.70;;
1682;SDS011;13252;53.596;10.060;2023-07-09T04:19:06;5.77;;;3.03;;
1682;SDS011;13252;53.596;10.060;2023-07-09T04:21:34;4.60;;;2.90;;
1682;SDS011;13252;53.596;10.060;2023-07-09T04:24:01;6.47;;;3.43;;
1682;SDS011;13252;53.596;10.060;2023-07-09T04:26:29;6.13;;;2.97;;
1682;SDS011;13252;53.596;10.060;2023-07-09T04:28:57;7.53;;;2.93;;
1682;SDS011;13252;53.596;10.060;2023-07-09T04:31:26;4.60;;;3.40;;
1682;SDS011;13252;53.596;10.060;2023-07-09T04:33:54;5.77;;;3.60;;
1682;SDS011;13252;53.596;10.060;2023-07-09T04:36:22;6.73;;;3.20;;
1682;SDS011;13252;53.596;10.060;2023-07-09T04:38:50;8.87;;;3.10;;
1682;SDS011;13252;53.596;10.060;2023-07-09T04:41:18;7.10;;;3.23;;
1682;SDS011;13252;53.596;10.060;2023-07-09T04:43:45;5.97;;;3.30;;
1682;SDS011;13252;53.596;10.060;2023-07-09T04:46:13;5.80;;;2.90;;
1682;SDS011;13252;53.596;10.060;2023-07-09T04:48:42;6.00;;;3.30;;
1682;SDS011;13252;53.596;10.060;2023-07-09T04:51:10;4.90;;;3.23;;
1682;SDS011;13252;53.596;10.060;2023-07-09T04:53:37;5.80;;;3.37;;
1682;SDS011;13252;53.596;10.060;2023-07-09T04:56:05;4.10;;;2.93;;
1682;SDS011;13252;53.596;10.060;2023-07-09T04:58:33;6.77;;;2.93;;
1682;SDS011;13252;53.596;10.060;2023-07-09T05:01:01;5.77;;;3.70;;
1682;SDS011;13252;53.596;10.060;2023-07-09T05:03:28;5.50;;;3.50;;
1682;SDS011;13252;53.596;10.060;2023-07-09T05:05:58;5.63;;;3.43;;
1682;SDS011;13252;53.596;10.060;2023-07-09T05:08:25;5.63;;;3.43;;
1682;SDS011;13252;53.596;10.060;2023-07-09T05:10:54;5.10;;;3.30;;
1682;SDS011;13252;53.596;10.060;2023-07-09T05:13:23;7.27;;;3.23;;
1682;SDS011;13252;53.596;10.060;2023-07-09T05:15:52;6.60;;;3.10;;
1682;SDS011;13252;53.596;10.060;2023-07-09T05:18:19;4.70;;;3.10;;
1682;SDS011;13252;53.596;10.060;2023-07-09T05:20:47;9.23;;;3.27;;
1682;SDS011;13252;53.596;10.060;2023-07-09T05:23:16;6.20;;;3.30;;
1682;SDS011;13252;53.596;10.060;2023-07-09T05:25:44;4.80;;;3.50;;
1682;SDS011;13252;53.596;10.060;2023-07-09T05:28:11;5.33;;;2.87;;
1682;SDS011;13252;53.596;10.060;2023-07-09T05:30:41;5.67;;;3.30;;
1682;SDS011;13252;53.596;10.060;2023-07-09T05:33:09;4.13;;;2.83;;
1682;SDS011;13252;53.596;10.060;2023-07-09T05:35:37;5.50;;;3.20;;
1682;SDS011;13252;53.596;10.060;2023-07-09T05:38:05;5.67;;;3.07;;
1682;SDS011;13252;53.596;10.060;2023-07-09T05:40:34;5.97;;;3.17;;
1682;SDS011;13252;53.596;10.060;2023-07-09T05:43:01;8.13;;;4.13;;
1682;SDS011;13252;53.596;10.060;2023-07-09T05:45:29;6.47;;;3.57;;
1682;SDS011;13252;53.596;10.060;2023-07-09T05:47:57;8.30;;;3.67;;
1682;SDS011;13252;53.596;10.060;2023-07-09T05:50:25;4.10;;;2.87;;
1682;SDS011;13252;53.596;10.060;2023-07-09T05:52:52;10.13;;;3.30;;
1682;SDS011;13252;53.596;10.060;2023-07-09T05:55:20;5.20;;;3.77;;
1682;SDS011;13252;53.596;10.060;2023-07-09T05:57:49;6.70;;;2.83;;
1682;SDS011;13252;53.596;10.060;2023-07-09T06:00:16;6.60;;;3.60;;
1682;SDS011;13252;53.596;10.060;2023-07-09T06:02:44;5.70;;;3.43;;
1682;SDS011;13252;53.596;10.060;2023-07-09T06:05:13;7.83;;;3.27;;
1682;SDS011;13252;53.596;10.060;2023-07-09T06:07:41;6.97;;;3.50;;
1682;SDS011;13252;53.596;10.060;2023-07-09T06:10:09;4.40;;;3.20;;
1682;SDS011;13252;53.596;10.060;2023-07-09T06:12:36;8.20;;;3.30;;
1682;SDS011;13252;53.596;10.060;2023-07-09T06:15:06;7.30;;;3.43;;
1682;SDS011;13252;53.596;10.060;2023-07-09T06:17:34;6.80;;;3.37;;
1682;SDS011;13252;53.596;10.060;2023-07-09T06:20:02;6.10;;;3.60;;
1682;SDS011;13252;53.596;10.060;2023-07-09T06:22:31;5.50;;;3.90;;
1682;SDS011;13252;53.596;10.060;2023-07-09T06:24:58;5.20;;;3.23;;
1682;SDS011;13252;53.596;10.060;2023-07-09T06:27:26;8.37;;;3.60;;
1682;SDS011;13252;53.596;10.060;2023-07-09T06:29:54;4.63;;;3.17;;
1682;SDS011;13252;53.596;10.060;2023-07-09T06:32:23;4.80;;;3.10;;
1682;SDS011;13252;53.596;10.060;2023-07-09T06:34:50;6.00;;;4.00;;
1682;SDS011;13252;53.596;10.060;2023-07-09T06:37:18;5.23;;;3.60;;
1682;SDS011;13252;53.596;10.060;2023-07-09T06:39:46;7.00;;;3.40;;
1682;SDS011;13252;53.596;10.060;2023-07-09T06:42:14;5.13;;;3.37;;
1682;SDS011;13252;53.596;10.060;2023-07-09T06:45:03;5.13;;;3.10;;
1682;SDS011;13252;53.596;10.060;2023-07-09T06:47:32;5.53;;;3.73;;
1682;SDS011;13252;53.596;10.060;2023-07-09T06:50:00;5.40;;;3.37;;
1682;SDS011;13252;53.596;10.060;2023-07-09T06:52:28;6.70;;;3.80;;
1682;SDS011;13252;53.596;10.060;2023-07-09T06:54:57;8.70;;;3.93;;
1682;SDS011;13252;53.596;10.060;2023-07-09T06:57:25;6.33;;;3.57;;
1682;SDS011;13252;53.596;10.060;2023-07-09T06:59:53;4.60;;;3.40;;
1682;SDS011;13252;53.596;10.060;2023-07-09T07:02:21;6.90;;;3.37;;
1682;SDS011;13252;53.596;10.060;2023-07-09T07:04:50;6.03;;;4.00;;
1682;SDS011;13252;53.596;10.060;2023-07-09T07:07:17;8.23;;;3.27;;
1682;SDS011;13252;53.596;10.060;2023-07-09T07:09:45;6.23;;;3.60;;
1682;SDS011;13252;53.596;10.060;2023-07-09T07:12:19;6.83;;;3.60;;
1682;SDS011;13252;53.596;10.060;2023-07-09T07:14:50;5.47;;;3.93;;
1682;SDS011;13252;53.596;10.060;2023-07-09T07:17:18;7.17;;;3.40;;
1682;SDS011;13252;53.596;10.060;2023-07-09T07:19:46;7.00;;;3.90;;
1682;SDS011;13252;53.596;10.060;2023-07-09T07:22:14;8.00;;;3.53;;
1682;SDS011;13252;53.596;10.060;2023-07-09T07:24:42;9.23;;;4.23;;
1682;SDS011;13252;53.596;10.060;2023-07-09T07:27:10;5.20;;;3.50;;
1682;SDS011;13252;53.596;10.060;2023-07-09T07:29:38;7.63;;;3.87;;
1682;SDS011;13252;53.596;10.060;2023-07-09T07:32:06;6.23;;;4.07;;
1682;SDS011;13252;53.596;10.060;2023-07-09T07:34:35;6.67;;;4.07;;
1682;SDS011;13252;53.596;10.060;2023-07-09T07:37:02;9.47;;;4.10;;
1682;SDS011;13252;53.596;10.060;2023-07-09T07:39:32;8.03;;;4.50;;
1682;SDS011;13252;53.596;10.060;2023-07-09T07:42:00;4.53;;;3.10;;
1682;SDS011;13252;53.596;10.060;2023-07-09T07:44:29;6.07;;;4.10;;
1682;SDS011;13252;53.596;10.060;2023-07-09T07:46:57;11.50;;;4.40;;
1682;SDS011;13252;53.596;10.060;2023-07-09T07:49:24;6.70;;;4.00;;
1682;SDS011;13252;53.596;10.060;2023-07-09T07:51:52;5.47;;;3.70;;
1682;SDS011;13252;53.596;10.060;2023-07-09T07:54:19;16.17;;;4.50;;
1682;SDS011;13252;53.596;10.060;2023-07-09T07:56:48;5.00;;;3.70;;
1682;SDS011;13252;53.596;10.060;2023-07-09T07:59:16;5.17;;;3.67;;
1682;SDS011;13252;53.596;10.060;2023-07-09T08:01:44;5.30;;;4.00;;
1682;SDS011;13252;53.596;10.060;2023-07-09T08:04:12;6.67;;;4.17;;
1682;SDS011;13252;53.596;10.060;2023-07-09T08:06:39;6.70;;;4.63;;
1682;SDS011;13252;53.596;10.060;2023-07-09T08:09:07;10.67;;;4.20;;
1682;SDS011;13252;53.596;10.060;2023-07-09T08:11:34;6.07;;;4.00;;
1682;SDS011;13252;53.596;10.060;2023-07-09T08:14:03;6.20;;;4.10;;
1682;SDS011;13252;53.596;10.060;2023-07-09T08:16:32;6.53;;;3.83;;
1682;SDS011;13252;53.596;10.060;2023-07-09T08:19:00;4.23;;;3.23;;
1682;SDS011;13252;53.596;10.060;2023-07-09T08:21:29;11.43;;;4.03;;
1682;SDS011;13252;53.596;10.060;2023-07-09T08:23:56;6.03;;;3.70;;
1682;SDS011;13252;53.596;10.060;2023-07-09T08:26:24;7.00;;;4.43;;
1682;SDS011;13252;53.596;10.060;2023-07-09T08:28:52;6.03;;;3.77;;
1682;SDS011;13252;53.596;10.060;2023-07-09T08:31:21;5.80;;;3.90;;
1682;SDS011;13252;53.596;10.060;2023-07-09T08:33:48;6.23;;;3.33;;
1682;SDS011;13252;53.596;10.060;2023-07-09T08:36:16;7.00;;;4.17;;
1682;SDS011;13252;53.596;10.060;2023-07-09T08:38:44;6.47;;;4.10;;
1682;SDS011;13252;53.596;10.060;2023-07-09T08:41:15;5.80;;;4.10;;
1682;SDS011;13252;53.596;10.060;2023-07-09T08:43:54;7.00;;;4.20;;
1682;SDS011;13252;53.596;10.060;2023-07-09T08:46:32;7.10;;;3.70;;
1682;SDS011;13252;53.596;10.060;2023-07-09T08:49:13;5.27;;;3.73;;
1682;SDS011;13252;53.596;10.060;2023-07-09T08:51:43;6.87;;;4.20;;
1682;SDS011;13252;53.596;10.060;2023-07-09T08:54:14;6.07;;;4.10;;
1682;SDS011;13252;53.596;10.060;2023-07-09T08:56:43;6.13;;;4.40;;
1682;SDS011;13252;53.596;10.060;2023-07-09T08:59:11;4.63;;;3.70;;
1682;SDS011;13252;53.596;10.060;2023-07-09T09:01:45;5.97;;;4.30;;
1682;SDS011;13252;53.596;10.060;2023-07-09T09:04:18;7.83;;;4.23;;
1682;SDS011;13252;53.596;10.060;2023-07-09T09:06:47;6.60;;;4.17;;
1682;SDS011;13252;53.596;10.060;2023-07-09T09:09:22;7.13;;;4.70;;
1682;SDS011;13252;53.596;10.060;2023-07-09T09:11:57;7.83;;;4.87;;
1682;SDS011;13252;53.596;10.060;2023-07-09T09:14:29;6.53;;;4.10;;
1682;SDS011;13252;53.596;10.060;2023-07-09T09:17:00;8.43;;;4.10;;
1682;SDS011;13252;53.596;10.060;2023-07-09T09:19:29;5.80;;;4.20;;
1682;SDS011;13252;53.596;10.060;2023-07-09T09:22:05;5.53;;;4.37;;
1682;SDS011;13252;53.596;10.060;2023-07-09T09:24:36;5.73;;;4.23;;
1682;SDS011;13252;53.596;10.060;2023-07-09T09:27:07;6.50;;;4.77;;
1682;SDS011;13252;53.596;10.060;2023-07-09T09:29:35;7.80;;;4.90;;
1682;SDS011;13252;53.596;10.060;2023-07-09T09:32:15;6.60;;;4.70;;
1682;SDS011;13252;53.596;10.060;2023-07-09T09:34:47;6.20;;;4.73;;
1682;SDS011;13252;53.596;10.060;2023-07-09T09:37:15;5.90;;;4.57;;
1682;SDS011;13252;53.596;10.060;2023-07-09T09:39:51;6.37;;;4.53;;
1682;SDS011;13252;53.596;10.060;2023-07-09T09:42:38;7.57;;;4.47;;
1682;SDS011;13252;53.596;10.060;2023-07-09T09:45:08;7.00;;;4.07;;
1682;SDS011;13252;53.596;10.060;2023-07-09T09:47:40;7.20;;;4.83;;
1682;SDS011;13252;53.596;10.060;2023-07-09T09:50:08;6.20;;;4.10;;
1682;SDS011;13252;53.596;10.060;2023-07-09T09:52:37;5.70;;;4.57;;
1682;SDS011;13252;53.596;10.060;2023-07-09T09:55:10;5.87;;;4.40;;
1682;SDS011;13252;53.596;10.060;2023-07-09T09:57:39;10.80;;;4.30;;
1682;SDS011;13252;53.596;10.060;2023-07-09T10:00:12;8.20;;;4.43;;
1682;SDS011;13252;53.596;10.060;2023-07-09T10:02:44;8.57;;;4.70;;
1682;SDS011;13252;53.596;10.060;2023-07-09T10:05:13;5.30;;;4.07;;
1682;SDS011;13252;53.596;10.060;2023-07-09T10:07:43;6.17;;;4.40;;
1682;SDS011;13252;53.596;10.060;2023-07-09T10:10:12;6.90;;;4.60;;
1682;SDS011;13252;53.596;10.060;2023-07-09T10:12:42;10.70;;;4.47;;
1682;SDS011;13252;53.596;10.060;2023-07-09T10:15:17;8.63;;;4.90;;
1682;SDS011;13252;53.596;10.060;2023-07-09T10:17:56;7.00;;;4.97;;
1682;SDS011;13252;53.596;10.060;2023-07-09T10:20:32;6.80;;;5.03;;
1682;SDS011;13252;53.596;10.060;2023-07-09T10:23:07;5.90;;;4.67;;
1682;SDS011;13252;53.596;10.060;2023-07-09T10:25:44;8.13;;;4.50;;
1682;SDS011;13252;53.596;10.060;2023-07-09T10:28:19;5.47;;;4.20;;
1682;SDS011;13252;53.596;10.060;2023-07-09T10:30:59;7.77;;;4.20;;
1682;SDS011;13252;53.596;10.060;2023-07-09T10:33:35;9.00;;;4.47;;
1682;SDS011;13252;53.596;10.060;2023-07-09T10:36:21;7.90;;;4.70;;
1682;SDS011;13252;53.596;10.060;2023-07-09T10:38:55;6.50;;;4.10;;
1682;SDS011;13252;53.596;10.060;2023-07-09T10:41:26;11.70;;;4.90;;
1682;SDS011;13252;53.596;10.060;2023-07-09T10:43:57;9.40;;;4.27;;
1682;SDS011;13252;53.596;10.060;2023-07-09T10:46:28;7.80;;;4.90;;
1682;SDS011;13252;53.596;10.060;2023-07-09T10:49:00;10.13;;;5.03;;
1682;SDS011;13252;53.596;10.060;2023-07-09T10:51:33;9.03;;;4.60;;
1682;SDS011;13252;53.596;10.060;2023-07-09T10:54:07;6.73;;;4.40;;
1682;SDS011;13252;53.596;10.060;2023-07-09T10:56:39;14.20;;;4.90;;
1682;SDS011;13252;53.596;10.060;2023-07-09T10:59:11;7.20;;;5.20;;
1682;SDS011;13252;53.596;10.060;2023-07-09T11:01:47;8.13;;;4.70;;
1682;SDS011;13252;53.596;10.060;2023-07-09T11:04:21;7.67;;;4.33;;
1682;SDS011;13252;53.596;10.060;2023-07-09T11:06:54;5.83;;;4.00;;
1682;SDS011;13252;53.596;10.060;2023-07-09T11:09:24;6.00;;;4.70;;
1682;SDS011;13252;53.596;10.060;2023-07-09T11:11:56;6.27;;;5.00;;
1682;SDS011;13252;53.596;10.060;2023-07-09T11:14:26;8.93;;;4.50;;
1682;SDS011;13252;53.596;10.060;2023-07-09T11:16:55;7.57;;;4.70;;
1682;SDS011;13252;53.596;10.060;2023-07-09T11:19:26;7.67;;;4.27;;
1682;SDS011;13252;53.596;10.060;2023-07-09T11:22:04;11.13;;;4.30;;
1682;SDS011;13252;53.596;10.060;2023-07-09T11:24:34;6.83;;;4.97;;
1682;SDS011;13252;53.596;10.060;2023-07-09T11:27:14;7.90;;;4.90;;
1682;SDS011;13252;53.596;10.060;2023-07-09T11:29:47;7.07;;;4.73;;
1682;SDS011;13252;53.596;10.060;2023-07-09T11:32:19;6.20;;;5.00;;
1682;SDS011;13252;53.596;10.060;2023-07-09T11:34:50;7.50;;;4.87;;
1682;SDS011;13252;53.596;10.060;2023-07-09T11:37:18;7.67;;;5.03;;
1682;SDS011;13252;53.596;10.060;2023-07-09T11:39:47;12.50;;;4.10;;
1682;SDS011;13252;53.596;10.060;2023-07-09T11:42:28;8.30;;;4.50;;
1682;SDS011;13252;53.596;10.060;2023-07-09T11:45:00;7.53;;;4.77;;
1682;SDS011;13252;53.596;10.060;2023-07-09T11:47:31;8.93;;;5.30;;
1682;SDS011;13252;53.596;10.060;2023-07-09T11:50:04;7.83;;;4.53;;
1682;SDS011;13252;53.596;10.060;2023-07-09T11:52:33;5.60;;;4.40;;
1682;SDS011;13252;53.596;10.060;2023-07-09T11:55:13;5.63;;;4.40;;
1682;SDS011;13252;53.596;10.060;2023-07-09T11:57:53;6.00;;;4.33;;
1682;SDS011;13252;53.596;10.060;2023-07-09T12:00:21;8.70;;;4.30;;
1682;SDS011;13252;53.596;10.060;2023-07-09T12:02:49;5.70;;;5.07;;
1682;SDS011;13252;53.596;10.060;2023-07-09T12:05:22;10.23;;;4.23;;
1682;SDS011;13252;53.596;10.060;2023-07-09T12:07:53;6.10;;;4.50;;
1682;SDS011;13252;53.596;10.060;2023-07-09T12:10:22;6.10;;;4.73;;
1682;SDS011;13252;53.596;10.060;2023-07-09T12:12:54;8.07;;;4.93;;
1682;SDS011;13252;53.596;10.060;2023-07-09T12:15:23;6.00;;;5.13;;
1682;SDS011;13252;53.596;10.060;2023-07-09T12:17:53;5.23;;;4.30;;
1682;SDS011;13252;53.596;10.060;2023-07-09T12:20:28;6.37;;;4.60;;
1682;SDS011;13252;53.596;10.060;2023-07-09T12:22:57;7.40;;;5.60;;
1682;SDS011;13252;53.596;10.060;2023-07-09T12:25:26;10.23;;;4.67;;
1682;SDS011;13252;53.596;10.060;2023-07-09T12:27:54;6.90;;;5.13;;
1682;SDS011;13252;53.596;10.060;2023-07-09T12:30:22;11.13;;;4.60;;
1682;SDS011;13252;53.596;10.060;2023-07-09T12:32:50;7.80;;;5.50;;
1682;SDS011;13252;53.596;10.060;2023-07-09T12:35:19;9.00;;;4.00;;
1682;SDS011;13252;53.596;10.060;2023-07-09T12:37:50;6.50;;;5.37;;
1682;SDS011;13252;53.596;10.060;2023-07-09T12:40:20;6.50;;;4.87;;
1682;SDS011;13252;53.596;10.060;2023-07-09T12:42:49;7.33;;;5.27;;
1682;SDS011;13252;53.596;10.060;2023-07-09T12:45:18;7.57;;;5.43;;
1682;SDS011;13252;53.596;10.060;2023-07-09T12:47:47;5.10;;;4.50;;
1682;SDS011;13252;53.596;10.060;2023-07-09T12:50:18;7.63;;;5.30;;
1682;SDS011;13252;53.596;10.060;2023-07-09T12:52:50;11.17;;;5.13;;
1682;SDS011;13252;53.596;10.060;2023-07-09T12:55:21;5.83;;;4.47;;
1682;SDS011;13252;53.596;10.060;2023-07-09T12:57:50;10.33;;;4.83;;
1682;SDS011;13252;53.596;10.060;2023-07-09T13:00:18;6.30;;;4.37;;
1682;SDS011;13252;53.596;10.060;2023-07-09T13:02:50;9.80;;;5.07;;
1682;SDS011;13252;53.596;10.060;2023-07-09T13:05:22;7.87;;;4.90;;
1682;SDS011;13252;53.596;10.060;2023-07-09T13:07:52;6.90;;;4.50;;
1682;SDS011;13252;53.596;10.060;2023-07-09T13:10:22;5.87;;;4.43;;
1682;SDS011;13252;53.596;10.060;2023-07-09T13:12:53;8.00;;;6.07;;
1682;SDS011;13252;53.596;10.060;2023-07-09T13:15:23;8.30;;;4.80;;
1682;SDS011;13252;53.596;10.060;2023-07-09T13:18:02;7.50;;;4.43;;
1682;SDS011;13252;53.596;10.060;2023-07-09T13:20:34;7.20;;;5.53;;
1682;SDS011;13252;53.596;10.060;2023-07-09T13:23:09;5.83;;;4.30;;
1682;SDS011;13252;53.596;10.060;2023-07-09T13:25:38;5.90;;;4.37;;
1682;SDS011;13252;53.596;10.060;2023-07-09T13:28:17;9.20;;;5.70;;
1682;SDS011;13252;53.596;10.060;2023-07-09T13:30:45;7.10;;;4.30;;
1682;SDS011;13252;53.596;10.060;2023-07-09T13:33:13;6.37;;;5.30;;
1682;SDS011;13252;53.596;10.060;2023-07-09T13:35:41;7.20;;;4.60;;
1682;SDS011;13252;53.596;10.060;2023-07-09T13:38:13;8.30;;;5.13;;
1682;SDS011;13252;53.596;10.060;2023-07-09T13:40:42;8.77;;;5.00;;
1682;SDS011;13252;53.596;10.060;2023-07-09T13:43:11;9.83;;;4.83;;
1682;SDS011;13252;53.596;10.060;2023-07-09T13:45:40;8.03;;;5.00;;
1682;SDS011;13252;53.596;10.060;2023-07-09T13:48:14;6.83;;;4.80;;
1682;SDS011;13252;53.596;10.060;2023-07-09T13:50:43;6.70;;;5.03;;
1682;SDS011;13252;53.596;10.060;2023-07-09T13:53:14;5.63;;;4.50;;
1682;SDS011;13252;53.596;10.060;2023-07-09T13:55:43;7.47;;;4.60;;
1682;SDS011;13252;53.596;10.060;2023-07-09T13:58:12;9.97;;;5.03;;
1682;SDS011;13252;53.596;10.060;2023-07-09T14:00:41;7.67;;;4.77;;
1682;SDS011;13252;53.596;10.060;2023-07-09T14:03:12;8.00;;;4.70;;
1682;SDS011;13252;53.596;10.060;2023-07-09T14:05:42;9.93;;;4.83;;
1682;SDS011;13252;53.596;10.060;2023-07-09T14:08:09;7.97;;;5.00;;
1682;SDS011;13252;53.596;10.060;2023-07-09T14:10:41;8.77;;;5.07;;
1682;SDS011;13252;53.596;10.060;2023-07-09T14:13:09;9.13;;;5.67;;
1682;SDS011;13252;53.596;10.060;2023-07-09T14:15:40;10.53;;;5.43;;
1682;SDS011;13252;53.596;10.060;2023-07-09T14:18:10;6.63;;;5.20;;
1682;SDS011;13252;53.596;10.060;2023-07-09T14:20:39;10.00;;;5.40;;
1682;SDS011;13252;53.596;10.060;2023-07-09T14:23:08;6.80;;;5.13;;
1682;SDS011;13252;53.596;10.060;2023-07-09T14:25:37;7.13;;;5.20;;
1682;SDS011;13252;53.596;10.060;2023-07-09T14:28:08;8.80;;;5.17;;
1682;SDS011;13252;53.596;10.060;2023-07-09T14:30:38;7.07;;;4.73;;
1682;SDS011;13252;53.596;10.060;2023-07-09T14:33:09;6.33;;;5.27;;
1682;SDS011;13252;53.596;10.060;2023-07-09T14:35:39;6.07;;;5.03;;
1682;SDS011;13252;53.596;10.060;2023-07-09T14:38:10;7.00;;;5.27;;
1682;SDS011;13252;53.596;10.060;2023-07-09T14:40:43;9.20;;;5.60;;
1682;SDS011;13252;53.596;10.060;2023-07-09T14:43:13;7.00;;;5.40;;
1682;SDS011;13252;53.596;10.060;2023-07-09T14:45:41;7.40;;;5.43;;
1682;SDS011;13252;53.596;10.060;2023-07-09T14:48:09;8.30;;;5.67;;
1682;SDS011;13252;53.596;10.060;2023-07-09T14:50:37;10.40;;;5.43;;
1682;SDS011;13252;53.596;10.060;2023-07-09T14:53:09;7.87;;;5.37;;
1682;SDS011;13252;53.596;10.060;2023-07-09T14:55:39;6.87;;;4.80;;
1682;SDS011;13252;53.596;10.060;2023-07-09T14:58:15;9.27;;;5.33;;
1682;SDS011;13252;53.596;10.060;2023-07-09T15:00:44;10.37;;;5.77;;